createdAt,value
2019-02-12T00:02:25.493Z,4.67
2019-02-12T00:04:52.986Z,4.65
2019-02-12T00:07:20.463Z,4.78
2019-02-12T00:09:48.471Z,4.54
2019-02-12T00:12:15.975Z,4.49
2019-02-12T00:14:43.463Z,4.46
2019-02-12T00:17:10.936Z,4.23
2019-02-12T00:19:38.479Z,4.35
2019-02-12T00:22:05.957Z,4.37
2019-02-12T00:24:33.498Z,4.62
2019-02-12T00:27:00.951Z,4.45
2019-02-12T00:29:28.462Z,4.60
2019-02-12T00:31:55.960Z,4.76
2019-02-12T00:34:23.425Z,4.53
2019-02-12T00:36:50.868Z,4.29
2019-02-12T00:39:19.182Z,4.18
2019-02-12T00:41:46.663Z,3.87
2019-02-12T00:44:14.220Z,3.97
2019-02-12T00:46:41.654Z,4.18
2019-02-12T00:49:09.131Z,3.83
2019-02-12T00:51:36.664Z,3.84
2019-02-12T00:54:04.106Z,4.08
2019-02-12T00:56:31.612Z,3.73
2019-02-12T00:58:59.073Z,3.79
2019-02-12T01:01:26.578Z,3.54
2019-02-12T01:03:54.033Z,3.69
2019-02-12T01:06:21.489Z,3.84
2019-02-12T01:08:49.746Z,3.98
2019-02-12T01:11:17.213Z,3.62
2019-02-12T01:13:44.758Z,3.79
2019-02-12T01:16:12.180Z,3.70
2019-02-12T01:18:39.642Z,3.81
2019-02-12T01:21:07.121Z,3.96
2019-02-12T01:23:34.616Z,4.16
2019-02-12T01:26:02.111Z,4.15
2019-02-12T01:28:29.594Z,3.88
2019-02-12T01:30:57.118Z,4.44
2019-02-12T01:33:24.582Z,4.31
2019-02-12T01:35:52.102Z,4.65
2019-02-12T01:38:20.241Z,4.34
2019-02-12T01:40:47.751Z,4.23
2019-02-12T01:43:15.220Z,4.33
2019-02-12T01:45:42.756Z,4.48
2019-02-12T01:48:10.212Z,4.10
2019-02-12T01:50:37.682Z,4.17
2019-02-12T01:53:05.168Z,4.27
2019-02-12T01:55:32.690Z,4.19
2019-02-12T01:58:00.194Z,4.09
2019-02-12T02:00:27.615Z,4.38
2019-02-12T02:02:55.158Z,4.55
2019-02-12T02:05:22.623Z,4.53
2019-02-12T02:07:50.814Z,4.35
2019-02-12T02:10:18.301Z,4.11
2019-02-12T02:12:45.784Z,4.32
2019-02-12T02:15:13.282Z,4.26
2019-02-12T02:17:40.747Z,4.29
2019-02-12T02:20:09.655Z,4.28
2019-02-12T02:22:37.201Z,4.27
2019-02-12T02:25:04.728Z,4.32
2019-02-12T02:27:32.190Z,4.02
2019-02-12T02:29:59.670Z,4.05
2019-02-12T02:32:27.161Z,4.15
2019-02-12T02:34:54.646Z,3.99
2019-02-12T02:37:22.117Z,3.82
2019-02-12T02:39:49.584Z,3.82
2019-02-12T02:42:17.063Z,3.89
2019-02-12T02:44:44.517Z,3.72
2019-02-12T02:47:11.987Z,3.62
2019-02-12T02:49:39.455Z,3.71
2019-02-12T02:52:06.960Z,3.84
2019-02-12T02:54:34.421Z,4.13
2019-02-12T02:57:02.019Z,4.00
2019-02-12T02:59:29.489Z,3.88
2019-02-12T03:01:57.001Z,3.91
2019-02-12T03:04:24.484Z,4.04
2019-02-12T03:06:52.225Z,4.06
2019-02-12T03:09:19.706Z,3.93
2019-02-12T03:11:47.181Z,4.18
2019-02-12T03:14:14.634Z,4.37
2019-02-12T03:16:42.143Z,3.97
2019-02-12T03:19:09.588Z,3.86
2019-02-12T03:21:37.110Z,3.64
2019-02-12T03:24:04.577Z,4.13
2019-02-12T03:26:32.056Z,4.23
2019-02-12T03:28:59.557Z,4.23
2019-02-12T03:31:27.094Z,3.95
2019-02-12T03:33:54.585Z,3.84
2019-02-12T03:36:22.744Z,3.81
2019-02-12T03:38:50.192Z,4.03
2019-02-12T03:41:17.620Z,4.25
2019-02-12T03:43:45.090Z,3.68
2019-02-12T03:46:12.543Z,3.86
2019-02-12T03:48:40.009Z,3.69
2019-02-12T03:51:07.451Z,3.74
2019-02-12T03:53:34.904Z,3.75
2019-02-12T03:56:02.402Z,3.28
2019-02-12T03:58:29.870Z,3.55
2019-02-12T04:00:57.322Z,3.15
2019-02-12T04:03:24.806Z,3.24
2019-02-12T04:05:52.296Z,3.72
2019-02-12T04:08:19.747Z,3.54
2019-02-12T04:10:47.245Z,3.31
2019-02-12T04:13:14.776Z,3.22
2019-02-12T04:15:42.308Z,3.03
2019-02-12T04:18:09.773Z,3.14
2019-02-12T04:20:37.273Z,3.25
2019-02-12T04:23:04.762Z,3.22
2019-02-12T04:25:32.280Z,3.33
2019-02-12T04:27:59.769Z,3.37
2019-02-12T04:30:27.263Z,3.36
2019-02-12T04:32:54.777Z,3.52
2019-02-12T04:35:22.237Z,3.26
2019-02-12T04:37:49.705Z,3.29
2019-02-12T04:40:17.186Z,3.09
2019-02-12T04:42:44.714Z,3.23
2019-02-12T04:45:12.178Z,2.91
2019-02-12T04:47:39.658Z,2.88
2019-02-12T04:50:09.904Z,2.99
2019-02-12T04:52:37.471Z,3.28
2019-02-12T04:55:06.196Z,3.22
2019-02-12T04:57:32.494Z,3.34
2019-02-12T04:59:59.951Z,3.46
2019-02-12T05:02:27.417Z,3.64
2019-02-12T05:04:54.890Z,3.53
2019-02-12T05:07:22.382Z,3.43
2019-02-12T05:09:49.845Z,3.47
2019-02-12T05:12:18.421Z,3.33
2019-02-12T05:14:45.970Z,3.23
2019-02-12T05:17:13.488Z,3.59
2019-02-12T05:19:40.984Z,3.39
2019-02-12T05:22:08.483Z,3.11
2019-02-12T05:24:35.953Z,3.16
2019-02-12T05:27:03.411Z,3.43
2019-02-12T05:29:30.886Z,3.25
2019-02-12T05:31:58.336Z,3.48
2019-02-12T05:34:25.847Z,3.35
2019-02-12T05:36:53.367Z,3.45
2019-02-12T05:39:20.844Z,3.14
2019-02-12T05:41:48.315Z,3.36
2019-02-12T05:44:15.775Z,3.26
2019-02-12T05:46:44.236Z,3.29
2019-02-12T05:49:11.817Z,3.15
2019-02-12T05:51:39.314Z,3.09
2019-02-12T05:54:06.833Z,2.90
2019-02-12T05:56:34.353Z,3.09
2019-02-12T05:59:01.842Z,2.83
2019-02-12T06:01:29.316Z,3.03
2019-02-12T06:03:56.771Z,2.88
2019-02-12T06:06:24.238Z,2.73
2019-02-12T06:08:51.704Z,2.94
2019-02-12T06:11:19.225Z,2.89
2019-02-12T06:13:46.659Z,2.92
2019-02-12T06:16:14.119Z,3.06
2019-02-12T06:18:41.615Z,3.16
2019-02-12T06:21:09.096Z,3.28
2019-02-12T06:23:36.560Z,3.24
2019-02-12T06:26:04.032Z,3.34
2019-02-12T06:28:31.513Z,3.40
2019-02-12T06:30:59.006Z,3.42
2019-02-12T06:33:26.439Z,3.53
2019-02-12T06:35:53.967Z,3.27
2019-02-12T06:38:21.462Z,3.34
2019-02-12T06:40:48.921Z,3.35
2019-02-12T06:43:16.357Z,3.29
2019-02-12T06:45:43.857Z,3.41
2019-02-12T06:48:11.332Z,3.46
2019-02-12T06:50:38.836Z,3.50
2019-02-12T06:53:12.584Z,3.58
2019-02-12T06:55:34.976Z,3.20
2019-02-12T06:58:02.420Z,3.41
2019-02-12T07:00:29.900Z,3.11
2019-02-12T07:03:09.077Z,3.21
2019-02-12T07:05:36.558Z,3.06
2019-02-12T07:08:20.556Z,3.27
2019-02-12T07:10:48.047Z,3.34
2019-02-12T07:13:19.142Z,3.66
2019-02-12T07:15:46.607Z,3.43
2019-02-12T07:18:32.476Z,3.24
2019-02-12T07:21:13.651Z,3.21
2019-02-12T07:26:55.434Z,3.34
2019-02-12T07:32:47.301Z,3.48
2019-02-12T07:35:19.091Z,3.38
2019-02-12T07:37:50.978Z,3.38
2019-02-12T07:40:18.510Z,3.41
2019-02-12T07:42:54.299Z,3.43
2019-02-12T07:45:29.410Z,3.26
2019-02-12T07:48:05.591Z,3.42
2019-02-12T07:50:36.531Z,3.50
2019-02-12T07:53:17.727Z,3.55
2019-02-12T07:55:45.201Z,3.57
2019-02-12T07:58:26.366Z,3.55
2019-02-12T08:00:55.255Z,3.67
2019-02-12T08:03:44.053Z,3.57
2019-02-12T08:06:12.335Z,3.64
2019-02-12T08:09:09.378Z,3.75
2019-02-12T08:11:38.325Z,3.67
2019-02-12T08:14:23.352Z,3.50
2019-02-12T08:17:13.582Z,3.70
2019-02-12T08:19:58.081Z,3.59
2019-02-12T08:22:44.228Z,3.73
2019-02-12T08:25:31.274Z,3.73
2019-02-12T08:28:04.089Z,3.78
2019-02-12T08:30:35.163Z,3.82
2019-02-12T08:33:19.350Z,3.85
2019-02-12T08:35:57.016Z,3.66
2019-02-12T08:38:38.214Z,3.81
2019-02-12T08:41:05.687Z,3.83
2019-02-12T08:43:54.745Z,3.90
2019-02-12T08:46:48.885Z,3.64
2019-02-12T08:49:22.132Z,3.86
2019-02-12T08:51:57.166Z,3.96
2019-02-12T08:54:32.103Z,3.80
2019-02-12T08:57:05.072Z,3.84
2019-02-12T08:59:33.220Z,3.88
2019-02-12T09:02:10.624Z,4.10
2019-02-12T09:04:54.676Z,3.94
2019-02-12T09:07:40.860Z,3.87
2019-02-12T09:10:14.798Z,3.95
2019-02-12T09:13:00.728Z,3.85
2019-02-12T09:15:45.912Z,4.04
2019-02-12T09:18:34.155Z,3.72
2019-02-12T09:21:19.082Z,4.07
2019-02-12T09:24:03.638Z,3.89
2019-02-12T09:26:49.680Z,4.09
2019-02-12T09:29:22.675Z,3.94
2019-02-12T09:32:08.721Z,3.92
2019-02-12T09:34:47.860Z,4.27
2019-02-12T09:37:27.024Z,4.24
2019-02-12T09:40:01.358Z,4.18
2019-02-12T09:42:42.643Z,4.32
2019-02-12T09:45:14.755Z,4.15
2019-02-12T09:47:47.640Z,4.38
2019-02-12T09:50:16.554Z,4.15
2019-02-12T09:53:10.568Z,4.41
2019-02-12T09:56:01.621Z,4.33
2019-02-12T09:58:32.756Z,4.35
2019-02-12T10:01:00.221Z,4.43
2019-02-12T10:03:44.950Z,4.51
2019-02-12T10:06:29.309Z,4.29
2019-02-12T10:09:03.163Z,4.61
2019-02-12T10:11:30.652Z,4.44
2019-02-12T10:14:16.798Z,4.83
2019-02-12T10:16:45.091Z,4.58
2019-02-12T10:19:23.456Z,4.67
2019-02-12T10:22:01.742Z,4.70
2019-02-12T10:24:35.612Z,4.81
2019-02-12T10:27:27.564Z,4.87
2019-02-12T10:30:06.620Z,4.92
2019-02-12T10:32:33.505Z,4.80
2019-02-12T10:35:01.000Z,4.91
2019-02-12T10:37:28.450Z,5.10
2019-02-12T10:39:55.918Z,4.95
2019-02-12T10:42:23.375Z,5.21
2019-02-12T10:44:50.858Z,5.34
2019-02-12T10:47:18.353Z,5.54
2019-02-12T10:49:45.800Z,5.50
2019-02-12T10:52:13.292Z,5.41
2019-02-12T10:54:40.768Z,5.52
2019-02-12T10:57:08.254Z,5.57
2019-02-12T10:59:35.717Z,5.67
2019-02-12T11:02:03.175Z,5.62
2019-02-12T11:04:30.660Z,5.60
2019-02-12T11:06:58.099Z,5.84
2019-02-12T11:09:25.578Z,5.64
2019-02-12T11:11:53.057Z,5.78
2019-02-12T11:14:20.596Z,5.66
2019-02-12T11:16:48.037Z,5.58
2019-02-12T11:19:15.522Z,5.76
2019-02-12T11:21:42.984Z,5.61
2019-02-12T11:24:10.451Z,5.70
2019-02-12T11:26:37.879Z,5.53
2019-02-12T11:29:05.339Z,5.73
2019-02-12T11:31:32.828Z,5.57
2019-02-12T11:34:00.282Z,5.56
2019-02-12T11:36:27.782Z,5.67
2019-02-12T11:38:55.232Z,5.46
2019-02-12T11:41:22.715Z,5.44
2019-02-12T11:43:50.145Z,5.52
2019-02-12T11:46:17.629Z,5.59
2019-02-12T11:48:45.086Z,5.56
2019-02-12T11:51:12.549Z,5.71
2019-02-12T11:53:40.031Z,5.61
2019-02-12T11:56:07.501Z,5.90
2019-02-12T11:58:34.980Z,5.92
2019-02-12T12:01:02.501Z,5.72
2019-02-12T12:03:29.982Z,5.80
2019-02-12T12:05:57.455Z,5.82
2019-02-12T12:08:24.941Z,6.00
2019-02-12T12:10:52.442Z,6.11
2019-02-12T12:13:19.914Z,6.09
2019-02-12T12:15:47.363Z,5.86
2019-02-12T12:18:14.850Z,5.93
2019-02-12T12:20:42.277Z,6.01
2019-02-12T12:23:10.440Z,5.91
2019-02-12T12:25:38.102Z,5.72
2019-02-12T12:28:05.545Z,5.93
2019-02-12T12:30:32.979Z,5.76
2019-02-12T12:33:00.480Z,5.95
2019-02-12T12:35:27.932Z,6.01
2019-02-12T12:37:55.404Z,5.97
2019-02-12T12:40:22.855Z,5.85
2019-02-12T12:42:50.351Z,6.10
2019-02-12T12:45:18.790Z,6.15
2019-02-12T12:47:46.307Z,6.18
2019-02-12T12:50:13.762Z,5.83
2019-02-12T12:52:42.218Z,5.80
2019-02-12T12:55:09.682Z,6.04
2019-02-12T12:57:41.836Z,5.96
2019-02-12T13:00:07.459Z,6.03
2019-02-12T13:02:34.943Z,6.02
2019-02-12T13:05:02.778Z,6.04
2019-02-12T13:07:29.900Z,5.87
2019-02-12T13:09:57.377Z,5.76
2019-02-12T13:12:24.889Z,5.77
2019-02-12T13:14:52.355Z,5.81
2019-02-12T13:17:19.882Z,5.91
2019-02-12T13:19:47.357Z,5.80
2019-02-12T13:22:14.845Z,5.99
2019-02-12T13:24:42.345Z,6.20
2019-02-12T13:27:10.518Z,6.23
2019-02-12T13:29:37.959Z,5.92
2019-02-12T13:32:05.434Z,6.05
2019-02-12T13:34:32.882Z,5.99
2019-02-12T13:37:00.362Z,6.01
2019-02-12T13:39:27.838Z,6.16
2019-02-12T13:41:55.355Z,6.02
2019-02-12T13:44:22.827Z,5.99
2019-02-12T13:46:50.284Z,6.06
2019-02-12T13:49:17.775Z,6.13
2019-02-12T13:51:45.249Z,6.30
2019-02-12T13:54:12.727Z,6.35
2019-02-12T13:56:40.208Z,6.38
2019-02-12T13:59:07.665Z,6.62
2019-02-12T14:01:35.086Z,6.32
2019-02-12T14:04:03.717Z,6.37
2019-02-12T14:06:30.038Z,6.45
2019-02-12T14:08:57.639Z,6.46
2019-02-12T14:11:25.087Z,6.38
2019-02-12T14:13:52.534Z,6.26
2019-02-12T14:16:19.992Z,6.20
2019-02-12T14:18:47.498Z,6.41
2019-02-12T14:21:14.957Z,6.42
2019-02-12T14:23:43.000Z,6.41
2019-02-12T14:26:10.495Z,6.46
2019-02-12T14:28:37.945Z,6.62
2019-02-12T14:31:05.419Z,6.46
2019-02-12T14:33:32.858Z,6.69
2019-02-12T14:36:00.353Z,6.87
2019-02-12T14:38:27.829Z,6.77
2019-02-12T14:40:55.321Z,6.78
2019-02-12T14:43:22.826Z,6.76
2019-02-12T14:45:50.348Z,6.75
2019-02-12T14:48:17.788Z,6.55
2019-02-12T14:50:45.230Z,6.69
2019-02-12T14:53:13.480Z,6.69
2019-02-12T14:55:40.956Z,6.75
2019-02-12T14:58:08.442Z,6.72
2019-02-12T15:00:35.899Z,6.94
2019-02-12T15:03:03.339Z,6.81
2019-02-12T15:05:30.833Z,6.82
2019-02-12T15:07:58.315Z,6.74
2019-02-12T15:10:25.748Z,6.84
2019-02-12T15:12:53.241Z,6.92
2019-02-12T15:15:20.738Z,7.01
2019-02-12T15:17:48.214Z,7.20
2019-02-12T15:20:15.672Z,7.23
2019-02-12T15:22:43.149Z,7.22
2019-02-12T15:25:12.426Z,7.01
2019-02-12T15:27:39.882Z,7.08
2019-02-12T15:30:09.129Z,6.95
2019-02-12T15:32:36.561Z,6.83
2019-02-12T15:35:04.049Z,6.75
2019-02-12T15:37:31.512Z,6.83
2019-02-12T15:39:58.998Z,6.87
2019-02-12T15:42:26.445Z,6.59
2019-02-12T15:44:53.908Z,6.64
2019-02-12T15:47:21.363Z,6.87
2019-02-12T15:49:48.831Z,6.91
2019-02-12T15:52:16.308Z,6.98
2019-02-12T15:54:44.818Z,6.84
2019-02-12T15:57:12.263Z,6.73
2019-02-12T15:59:39.690Z,6.78
2019-02-12T16:02:07.133Z,6.70
2019-02-12T16:04:34.578Z,6.95
2019-02-12T16:07:02.027Z,7.22
2019-02-12T16:09:31.146Z,6.80
2019-02-12T16:11:56.936Z,6.78
2019-02-12T16:14:24.421Z,6.68
2019-02-12T16:16:53.888Z,6.67
2019-02-12T16:19:19.359Z,6.52
2019-02-12T16:21:46.851Z,6.83
2019-02-12T16:24:14.347Z,6.84
2019-02-12T16:26:41.832Z,6.76
2019-02-12T16:29:09.344Z,6.49
2019-02-12T16:31:36.778Z,6.45
2019-02-12T16:34:04.270Z,6.38
2019-02-12T16:36:34.516Z,6.40
2019-02-12T16:39:01.952Z,6.54
2019-02-12T16:41:29.420Z,6.25
2019-02-12T16:43:56.885Z,6.55
2019-02-12T16:46:24.418Z,6.12
2019-02-12T16:48:51.892Z,6.28
2019-02-12T16:51:19.382Z,6.10
2019-02-12T16:53:46.865Z,5.89
2019-02-12T16:56:14.355Z,5.98
2019-02-12T16:58:41.802Z,5.94
2019-02-12T17:01:09.317Z,6.09
2019-02-12T17:03:36.803Z,6.00
2019-02-12T17:06:04.269Z,5.85
2019-02-12T17:08:31.729Z,5.81
2019-02-12T17:10:59.182Z,6.06
2019-02-12T17:13:26.643Z,6.13
2019-02-12T17:15:54.162Z,6.01
2019-02-12T17:18:21.671Z,5.79
2019-02-12T17:20:49.466Z,5.88
2019-02-12T17:23:16.947Z,6.11
2019-02-12T17:25:44.424Z,5.98
2019-02-12T17:28:11.911Z,6.16
2019-02-12T17:30:39.363Z,6.06
2019-02-12T17:33:06.811Z,5.91
2019-02-12T17:35:34.260Z,6.05
2019-02-12T17:38:01.704Z,6.16
2019-02-12T17:40:29.163Z,6.30
2019-02-12T17:42:57.541Z,5.99
2019-02-12T17:45:24.980Z,5.98
2019-02-12T17:47:52.446Z,5.69
2019-02-12T17:50:19.923Z,6.02
2019-02-12T17:52:47.431Z,6.33
2019-02-12T17:55:14.893Z,6.40
2019-02-12T17:57:42.363Z,6.11
2019-02-12T18:00:11.599Z,6.26
2019-02-12T18:02:39.143Z,6.11
2019-02-12T18:05:06.622Z,6.10
2019-02-12T18:07:34.109Z,5.92
2019-02-12T18:10:01.568Z,5.85
2019-02-12T18:12:29.081Z,5.91
2019-02-12T18:14:56.550Z,5.91
2019-02-12T18:17:24.012Z,6.12
2019-02-12T18:19:51.463Z,5.97
2019-02-12T18:22:18.934Z,5.68
2019-02-12T18:24:46.434Z,6.13
2019-02-12T18:27:14.907Z,6.01
2019-02-12T18:29:42.457Z,6.18
2019-02-12T18:32:09.911Z,6.02
2019-02-12T18:34:37.359Z,6.29
2019-02-12T18:37:04.880Z,6.19
2019-02-12T18:39:32.315Z,6.09
2019-02-12T18:41:59.772Z,6.09
2019-02-12T18:44:27.235Z,6.12
2019-02-12T18:46:54.738Z,6.01
2019-02-12T18:49:22.220Z,5.90
2019-02-12T18:51:49.700Z,6.08
2019-02-12T18:54:17.175Z,6.30
2019-02-12T18:56:44.623Z,6.05
2019-02-12T18:59:12.079Z,6.24
2019-02-12T19:01:39.535Z,6.01
2019-02-12T19:04:07.027Z,6.22
2019-02-12T19:06:34.499Z,6.22
2019-02-12T19:09:01.953Z,6.20
2019-02-12T19:11:29.475Z,6.18
2019-02-12T19:13:56.939Z,5.92
2019-02-12T19:16:24.424Z,6.01
2019-02-12T19:18:51.886Z,5.93
2019-02-12T19:21:19.337Z,5.89
2019-02-12T19:23:47.653Z,6.10
2019-02-12T19:26:15.266Z,6.26
2019-02-12T19:28:42.706Z,6.26
2019-02-12T19:31:10.165Z,6.29
2019-02-12T19:33:37.643Z,6.24
2019-02-12T19:36:05.125Z,6.34
2019-02-12T19:38:32.626Z,6.34
2019-02-12T19:41:00.082Z,6.05
2019-02-12T19:43:27.533Z,5.94
2019-02-12T19:45:55.042Z,5.92
2019-02-12T19:48:22.506Z,5.87
2019-02-12T19:50:49.967Z,5.90
2019-02-12T19:53:17.471Z,5.98
2019-02-12T19:55:44.961Z,6.13
2019-02-12T19:58:12.401Z,5.76
2019-02-12T20:00:39.890Z,5.75
2019-02-12T20:03:07.336Z,5.64
2019-02-12T20:05:34.798Z,5.85
2019-02-12T20:08:02.310Z,5.59
2019-02-12T20:10:29.745Z,5.83
2019-02-12T20:12:57.224Z,5.54
2019-02-12T20:15:24.655Z,5.80
2019-02-12T20:17:52.124Z,5.55
2019-02-12T20:20:20.204Z,5.64
2019-02-12T20:22:47.681Z,5.55
2019-02-12T20:25:15.142Z,5.63
2019-02-12T20:27:42.582Z,5.54
2019-02-12T20:30:12.707Z,5.61
2019-02-12T20:32:40.194Z,5.35
2019-02-12T20:35:07.715Z,5.77
2019-02-12T20:37:35.205Z,5.39
2019-02-12T20:40:02.684Z,5.51
2019-02-12T20:42:31.663Z,5.21
2019-02-12T20:44:59.156Z,5.22
2019-02-12T20:47:26.627Z,5.22
2019-02-12T20:49:54.093Z,5.14
2019-02-12T20:52:21.507Z,5.16
2019-02-12T20:54:48.957Z,5.31
2019-02-12T20:57:16.442Z,5.35
2019-02-12T20:59:43.922Z,5.51
2019-02-12T21:02:11.392Z,5.36
2019-02-12T21:04:38.860Z,5.31
2019-02-12T21:07:06.331Z,5.53
2019-02-12T21:09:34.504Z,5.33
2019-02-12T21:12:02.087Z,5.37
2019-02-12T21:14:29.578Z,5.33
2019-02-12T21:16:57.031Z,5.09
2019-02-12T21:19:24.523Z,5.33
2019-02-12T21:21:52.029Z,5.36
2019-02-12T21:24:19.525Z,5.28
2019-02-12T21:26:47.005Z,5.26
2019-02-12T21:29:14.460Z,5.13
2019-02-12T21:31:41.938Z,5.17
2019-02-12T21:34:09.483Z,5.09
2019-02-12T21:36:36.957Z,5.06
2019-02-12T21:39:04.387Z,5.24
2019-02-12T21:41:31.850Z,5.13
2019-02-12T21:43:59.328Z,5.19
2019-02-12T21:46:26.816Z,5.05
2019-02-12T21:48:54.298Z,5.22
2019-02-12T21:51:21.968Z,5.06
2019-02-12T21:53:49.435Z,5.31
2019-02-12T21:56:16.891Z,5.00
2019-02-12T21:58:44.481Z,5.10
2019-02-12T22:01:11.975Z,5.17
2019-02-12T22:03:39.504Z,5.10
2019-02-12T22:06:06.946Z,5.24
2019-02-12T22:08:34.401Z,5.23
2019-02-12T22:11:01.874Z,5.03
2019-02-12T22:13:29.348Z,5.04
2019-02-12T22:15:56.839Z,5.05
2019-02-12T22:18:24.303Z,4.90
2019-02-12T22:20:52.529Z,5.06
2019-02-12T22:23:20.013Z,4.95
2019-02-12T22:25:47.535Z,5.00
2019-02-12T22:28:15.015Z,5.04
2019-02-12T22:30:42.509Z,4.80
2019-02-12T22:33:10.024Z,4.93
2019-02-12T22:35:37.489Z,5.12
2019-02-12T22:38:04.990Z,4.95
2019-02-12T22:40:32.464Z,5.04
2019-02-12T22:42:59.952Z,5.02
2019-02-12T22:45:27.452Z,4.98
2019-02-12T22:47:54.906Z,5.03
2019-02-12T22:50:23.072Z,5.00
2019-02-12T22:52:50.553Z,5.01
2019-02-12T22:55:18.819Z,5.01
2019-02-12T22:57:49.200Z,4.87
2019-02-12T23:00:46.964Z,4.97
2019-02-12T23:03:14.424Z,5.04
2019-02-12T23:05:41.905Z,5.08
2019-02-12T23:08:09.392Z,5.10
2019-02-12T23:10:36.829Z,4.93
2019-02-12T23:13:04.341Z,5.05
2019-02-12T23:15:31.789Z,4.93
2019-02-12T23:18:01.291Z,4.80
2019-02-12T23:20:28.743Z,4.82
2019-02-12T23:22:56.257Z,4.80
2019-02-12T23:25:23.923Z,4.75
2019-02-12T23:27:57.206Z,4.87
2019-02-12T23:30:18.902Z,4.97
2019-02-12T23:32:46.404Z,4.98
2019-02-12T23:35:13.937Z,4.73
2019-02-12T23:37:41.409Z,5.03
2019-02-12T23:40:08.949Z,4.80
2019-02-12T23:42:36.463Z,4.86
2019-02-12T23:45:04.584Z,4.92
2019-02-12T23:47:32.111Z,4.93
2019-02-12T23:49:59.578Z,4.72
2019-02-12T23:52:27.031Z,4.63
2019-02-12T23:54:54.555Z,4.66
2019-02-12T23:57:22.014Z,4.70
2019-02-12T23:59:49.509Z,4.70
